sensor_id;sensor_type;location;lat;lon;timestamp;pressure;altitude;pressure_sealevel;temperature;humidity
44531;BME280;30240;47.418;0.700;2023-03-13T00:02:09;99933.38012695312;;;12.8;91.54
44531;BME280;30240;47.418;0.700;2023-03-13T00:04:34;99933.0810546875;;;12.8;91.51
44531;BME280;30240;47.418;0.700;2023-03-13T00:06:58;99919.56176757812;;;12.79;91.63
44531;BME280;30240;47.418;0.700;2023-03-13T00:09:23;99911.9873046875;;;12.79;91.57
44531;BME280;30240;47.418;0.700;2023-03-13T00:11:48;99910.84594726562;;;12.77;91.48
44531;BME280;30240;47.418;0.700;2023-03-13T00:14:13;99910.84594726562;;;12.77;91.48
44531;BME280;30240;47.418;0.700;2023-03-13T00:16:38;99911.56005859375;;;12.77;91.38
44531;BME280;30240;47.418;0.700;2023-03-13T00:19:04;99908.7158203125;;;12.8;91.34
44531;BME280;30240;47.418;0.700;2023-03-13T00:21:29;99883.77075195312;;;12.77;91.18
44531;BME280;30240;47.418;0.700;2023-03-13T00:23:54;99880.13916015625;;;12.77;91.11
44531;BME280;30240;47.418;0.700;2023-03-13T00:26:20;99880.13916015625;;;12.77;91.11
44531;BME280;30240;47.418;0.700;2023-03-13T00:28:44;99876.65405273438;;;12.76;90.96
44531;BME280;30240;47.418;0.700;2023-03-13T00:31:11;99881.52465820312;;;12.73;90.96
44531;BME280;30240;47.418;0.700;2023-03-13T00:33:34;99886.15112304688;;;12.68;91.06
44531;BME280;30240;47.418;0.700;2023-03-13T00:35:59;99883.2275390625;;;12.63;91.04
44531;BME280;30240;47.418;0.700;2023-03-13T00:38:24;99883.2275390625;;;12.63;91.04
44531;BME280;30240;47.418;0.700;2023-03-13T00:40:48;99880.46875;;;12.63;90.94
44531;BME280;30240;47.418;0.700;2023-03-13T00:43:14;99879.59594726562;;;12.58;91.05
44531;BME280;30240;47.418;0.700;2023-03-13T00:45:38;99871.67358398438;;;12.55;91.04
44531;BME280;30240;47.418;0.700;2023-03-13T00:48:04;99875.10986328125;;;12.53;91.03
44531;BME280;30240;47.418;0.700;2023-03-13T00:50:29;99875.10986328125;;;12.53;91.03
44531;BME280;30240;47.418;0.700;2023-03-13T00:52:54;99867.48657226562;;;12.53;91.14
44531;BME280;30240;47.418;0.700;2023-03-13T00:55:19;99868.603515625;;;12.53;91.13
44531;BME280;30240;47.418;0.700;2023-03-13T00:57:43;99861.376953125;;;12.46;91.23
44531;BME280;30240;47.418;0.700;2023-03-13T01:00:09;99863.00048828125;;;12.46;91.27
44531;BME280;30240;47.418;0.700;2023-03-13T01:02:34;99863.00048828125;;;12.46;91.27
44531;BME280;30240;47.418;0.700;2023-03-13T01:02:40;99863.00048828125;;;12.46;91.27
44531;BME280;30240;47.418;0.700;2023-03-13T01:04:59;99856.4208984375;;;12.46;91.34
44531;BME280;30240;47.418;0.700;2023-03-13T01:07:23;99856.18896484375;;;12.45;91.45
44531;BME280;30240;47.418;0.700;2023-03-13T01:09:48;99857.61108398438;;;12.4;91.5
44531;BME280;30240;47.418;0.700;2023-03-13T01:12:13;99851.47094726562;;;12.41;91.52
44531;BME280;30240;47.418;0.700;2023-03-13T01:14:38;99841.91284179688;;;12.35;91.62
44531;BME280;30240;47.418;0.700;2023-03-13T01:17:04;99841.91284179688;;;12.35;91.62
44531;BME280;30240;47.418;0.700;2023-03-13T01:19:29;99836.85913085938;;;12.34;91.63
44531;BME280;30240;47.418;0.700;2023-03-13T01:21:54;99832.33032226562;;;12.31;91.71
44531;BME280;30240;47.418;0.700;2023-03-13T01:24:18;99835.26000976562;;;12.28;91.77
44531;BME280;30240;47.418;0.700;2023-03-13T01:26:43;99827.50854492188;;;12.27;91.8
44531;BME280;30240;47.418;0.700;2023-03-13T01:29:09;99827.50854492188;;;12.27;91.8
44531;BME280;30240;47.418;0.700;2023-03-13T01:31:34;99820.30639648438;;;12.2;91.91
44531;BME280;30240;47.418;0.700;2023-03-13T01:34:00;99827.15454101562;;;12.17;92.01
44531;BME280;30240;47.418;0.700;2023-03-13T01:36:24;99819.34204101562;;;12.14;92.05
44531;BME280;30240;47.418;0.700;2023-03-13T01:38:50;99806.84204101562;;;12.12;92.05
44531;BME280;30240;47.418;0.700;2023-03-13T01:41:14;99806.84204101562;;;12.12;92.05
44531;BME280;30240;47.418;0.700;2023-03-13T01:43:39;99805.43823242188;;;12.09;92.12
44531;BME280;30240;47.418;0.700;2023-03-13T01:46:10;99793.408203125;;;12.07;92.06
44531;BME280;30240;47.418;0.700;2023-03-13T01:48:32;99788.525390625;;;12.12;92.02
44531;BME280;30240;47.418;0.700;2023-03-13T01:50:55;99790.0634765625;;;12.14;91.86
44531;BME280;30240;47.418;0.700;2023-03-13T01:53:19;99790.0634765625;;;12.14;91.86
44531;BME280;30240;47.418;0.700;2023-03-13T01:55:44;99790.0390625;;;12.14;91.83
44531;BME280;30240;47.418;0.700;2023-03-13T01:58:08;99783.14819335938;;;12.1;91.79
44531;BME280;30240;47.418;0.700;2023-03-13T02:00:34;99782.06176757812;;;12.12;91.77
44531;BME280;30240;47.418;0.700;2023-03-13T02:03:03;99776.54418945312;;;12.12;91.77
44531;BME280;30240;47.418;0.700;2023-03-13T02:05:25;99776.54418945312;;;12.12;91.77
44531;BME280;30240;47.418;0.700;2023-03-13T02:07:52;99766.04614257812;;;12.07;91.89
44531;BME280;30240;47.418;0.700;2023-03-13T02:10:15;99764.39208984375;;;12.09;91.75
44531;BME280;30240;47.418;0.700;2023-03-13T02:12:39;99759.94262695312;;;12.14;91.58
44531;BME280;30240;47.418;0.700;2023-03-13T02:15:06;99756.35986328125;;;12.14;91.61
44531;BME280;30240;47.418;0.700;2023-03-13T02:17:29;99756.35986328125;;;12.14;91.61
44531;BME280;30240;47.418;0.700;2023-03-13T02:19:54;99765.7470703125;;;12.14;91.57
44531;BME280;30240;47.418;0.700;2023-03-13T02:22:23;99759.35668945312;;;12.13;91.68
44531;BME280;30240;47.418;0.700;2023-03-13T02:24:49;99746.533203125;;;12.1;91.73
44531;BME280;30240;47.418;0.700;2023-03-13T02:27:09;99745.9716796875;;;12.04;91.9
44531;BME280;30240;47.418;0.700;2023-03-13T02:29:34;99745.9716796875;;;12.04;91.9
44531;BME280;30240;47.418;0.700;2023-03-13T02:31:59;99740.0146484375;;;12.01;92.02
44531;BME280;30240;47.418;0.700;2023-03-13T02:34:27;99731.92138671875;;;11.99;92.1
44531;BME280;30240;47.418;0.700;2023-03-13T02:36:49;99726.5380859375;;;12.04;92.11
44531;BME280;30240;47.418;0.700;2023-03-13T02:39:16;99727.22778320312;;;12.0;92.22
44531;BME280;30240;47.418;0.700;2023-03-13T02:41:41;99720.51391601562;;;12.04;92.14
44531;BME280;30240;47.418;0.700;2023-03-13T02:44:04;99720.51391601562;;;12.04;92.14
44531;BME280;30240;47.418;0.700;2023-03-13T02:46:28;99719.580078125;;;12.01;92.22
44531;BME280;30240;47.418;0.700;2023-03-13T02:48:55;99718.42041015625;;;11.99;92.32
44531;BME280;30240;47.418;0.700;2023-03-13T02:51:21;99716.8212890625;;;12.0;92.4
44531;BME280;30240;47.418;0.700;2023-03-13T02:53:45;99718.90869140625;;;12.04;92.41
44531;BME280;30240;47.418;0.700;2023-03-13T02:56:11;99718.90869140625;;;12.04;92.41
44531;BME280;30240;47.418;0.700;2023-03-13T02:58:37;99704.97436523438;;;12.07;92.43
44531;BME280;30240;47.418;0.700;2023-03-13T03:00:59;99708.50219726562;;;12.06;92.37
44531;BME280;30240;47.418;0.700;2023-03-13T03:03:24;99694.68994140625;;;12.0;92.43
44531;BME280;30240;47.418;0.700;2023-03-13T03:05:49;99690.14282226562;;;12.01;92.51
44531;BME280;30240;47.418;0.700;2023-03-13T03:08:13;99690.14282226562;;;12.01;92.51
44531;BME280;30240;47.418;0.700;2023-03-13T03:10:38;99661.279296875;;;12.06;92.53
44531;BME280;30240;47.418;0.700;2023-03-13T03:13:03;99683.75244140625;;;11.99;92.61
44531;BME280;30240;47.418;0.700;2023-03-13T03:15:28;99669.140625;;;11.97;92.66
44531;BME280;30240;47.418;0.700;2023-03-13T03:17:54;99671.84448242188;;;12.0;92.7
44531;BME280;30240;47.418;0.700;2023-03-13T03:20:18;99671.84448242188;;;12.0;92.7
44531;BME280;30240;47.418;0.700;2023-03-13T03:22:43;99673.15673828125;;;11.97;92.78
44531;BME280;30240;47.418;0.700;2023-03-13T03:25:09;99659.5458984375;;;12.0;92.79
44531;BME280;30240;47.418;0.700;2023-03-13T03:27:34;99672.8759765625;;;12.03;92.79
44531;BME280;30240;47.418;0.700;2023-03-13T03:29:58;99670.47119140625;;;12.04;92.76
44531;BME280;30240;47.418;0.700;2023-03-13T03:32:23;99670.47119140625;;;12.04;92.76
44531;BME280;30240;47.418;0.700;2023-03-13T03:34:48;99672.24731445312;;;12.03;92.8
44531;BME280;30240;47.418;0.700;2023-03-13T03:37:13;99667.74291992188;;;12.06;92.84
44531;BME280;30240;47.418;0.700;2023-03-13T03:39:38;99661.04125976562;;;12.09;92.85
44531;BME280;30240;47.418;0.700;2023-03-13T03:42:04;99658.8623046875;;;12.09;92.86
44531;BME280;30240;47.418;0.700;2023-03-13T03:44:28;99658.8623046875;;;12.09;92.86
44531;BME280;30240;47.418;0.700;2023-03-13T03:46:53;99646.22802734375;;;12.09;92.81
44531;BME280;30240;47.418;0.700;2023-03-13T03:49:19;99661.26708984375;;;12.1;92.76
44531;BME280;30240;47.418;0.700;2023-03-13T03:51:43;99664.95361328125;;;12.16;92.76
44531;BME280;30240;47.418;0.700;2023-03-13T03:54:08;99658.935546875;;;12.2;92.68
44531;BME280;30240;47.418;0.700;2023-03-13T03:56:33;99658.935546875;;;12.2;92.68
44531;BME280;30240;47.418;0.700;2023-03-13T03:58:58;99655.56030273438;;;12.2;92.66
44531;BME280;30240;47.418;0.700;2023-03-13T04:01:23;99650.048828125;;;12.25;92.6
44531;BME280;30240;47.418;0.700;2023-03-13T04:03:48;99644.43969726562;;;12.24;92.62
44531;BME280;30240;47.418;0.700;2023-03-13T04:06:14;99641.17431640625;;;12.24;92.65
44531;BME280;30240;47.418;0.700;2023-03-13T04:08:38;99641.17431640625;;;12.24;92.65
44531;BME280;30240;47.418;0.700;2023-03-13T04:11:03;99632.470703125;;;12.25;92.66
44531;BME280;30240;47.418;0.700;2023-03-13T04:13:28;99627.0751953125;;;12.24;92.7
44531;BME280;30240;47.418;0.700;2023-03-13T04:15:54;99629.52880859375;;;12.27;92.72
44531;BME280;30240;47.418;0.700;2023-03-13T04:18:18;99622.54638671875;;;12.27;92.7
44531;BME280;30240;47.418;0.700;2023-03-13T04:20:44;99628.76586914062;;;12.28;92.71
44531;BME280;30240;47.418;0.700;2023-03-13T04:23:09;99628.76586914062;;;12.28;92.71
44531;BME280;30240;47.418;0.700;2023-03-13T04:25:33;99637.87231445312;;;12.31;92.72
44531;BME280;30240;47.418;0.700;2023-03-13T04:27:59;99633.81958007812;;;12.3;92.72
44531;BME280;30240;47.418;0.700;2023-03-13T04:30:23;99634.60083007812;;;12.28;92.7
44531;BME280;30240;47.418;0.700;2023-03-13T04:32:48;99628.01513671875;;;12.31;92.7
44531;BME280;30240;47.418;0.700;2023-03-13T04:35:14;99628.01513671875;;;12.31;92.7
44531;BME280;30240;47.418;0.700;2023-03-13T04:37:38;99622.56469726562;;;12.35;92.7
44531;BME280;30240;47.418;0.700;2023-03-13T04:40:04;99639.0869140625;;;12.34;92.65
44531;BME280;30240;47.418;0.700;2023-03-13T04:42:28;99630.88989257812;;;12.34;92.61
44531;BME280;30240;47.418;0.700;2023-03-13T04:44:53;99617.49267578125;;;12.37;92.67
44531;BME280;30240;47.418;0.700;2023-03-13T04:47:18;99617.49267578125;;;12.37;92.67
44531;BME280;30240;47.418;0.700;2023-03-13T04:49:43;99621.90551757812;;;12.35;92.7
44531;BME280;30240;47.418;0.700;2023-03-13T04:52:08;99617.9931640625;;;12.37;92.66
44531;BME280;30240;47.418;0.700;2023-03-13T04:54:33;99628.2470703125;;;12.37;92.65
44531;BME280;30240;47.418;0.700;2023-03-13T04:56:58;99622.88208007812;;;12.38;92.66
44531;BME280;30240;47.418;0.700;2023-03-13T04:59:24;99622.88208007812;;;12.38;92.66
44531;BME280;30240;47.418;0.700;2023-03-13T05:01:48;99613.31176757812;;;12.35;92.6
44531;BME280;30240;47.418;0.700;2023-03-13T05:04:13;99607.06787109375;;;12.38;92.66
44531;BME280;30240;47.418;0.700;2023-03-13T05:06:38;99588.43994140625;;;12.35;92.6
44531;BME280;30240;47.418;0.700;2023-03-13T05:09:04;99580.96923828125;;;12.35;92.59
44531;BME280;30240;47.418;0.700;2023-03-13T05:11:29;99580.96923828125;;;12.35;92.59
44531;BME280;30240;47.418;0.700;2023-03-13T05:13:53;99570.81298828125;;;12.4;92.62
44531;BME280;30240;47.418;0.700;2023-03-13T05:16:19;99563.80615234375;;;12.35;92.61
44531;BME280;30240;47.418;0.700;2023-03-13T05:18:44;99559.58862304688;;;12.35;92.59
44531;BME280;30240;47.418;0.700;2023-03-13T05:21:09;99550.439453125;;;12.33;92.65
44531;BME280;30240;47.418;0.700;2023-03-13T05:23:33;99550.439453125;;;12.33;92.65
44531;BME280;30240;47.418;0.700;2023-03-13T05:25:59;99535.7421875;;;12.3;92.6
44531;BME280;30240;47.418;0.700;2023-03-13T05:28:24;99530.35278320312;;;12.27;92.68
44531;BME280;30240;47.418;0.700;2023-03-13T05:30:48;99527.14233398438;;;12.27;92.68
44531;BME280;30240;47.418;0.700;2023-03-13T05:33:14;99519.67163085938;;;12.2;92.79
44531;BME280;30240;47.418;0.700;2023-03-13T05:35:38;99519.67163085938;;;12.2;92.79
44531;BME280;30240;47.418;0.700;2023-03-13T05:38:03;99534.62524414062;;;12.2;92.71
44531;BME280;30240;47.418;0.700;2023-03-13T05:40:29;99539.1845703125;;;12.2;92.68
44531;BME280;30240;47.418;0.700;2023-03-13T05:42:53;99537.97607421875;;;12.23;92.65
44531;BME280;30240;47.418;0.700;2023-03-13T05:45:18;99529.19311523438;;;12.28;92.45
44531;BME280;30240;47.418;0.700;2023-03-13T05:47:44;99525.48217773438;;;12.25;92.29
44531;BME280;30240;47.418;0.700;2023-03-13T05:50:09;99525.48217773438;;;12.25;92.29
44531;BME280;30240;47.418;0.700;2023-03-13T05:52:34;99513.47045898438;;;12.24;92.21
44531;BME280;30240;47.418;0.700;2023-03-13T05:54:58;99512.6708984375;;;12.25;92.21
44531;BME280;30240;47.418;0.700;2023-03-13T05:57:24;99512.80517578125;;;12.24;92.2
44531;BME280;30240;47.418;0.700;2023-03-13T05:59:49;99506.52465820312;;;12.24;92.22
44531;BME280;30240;47.418;0.700;2023-03-13T06:02:13;99506.52465820312;;;12.24;92.22
44531;BME280;30240;47.418;0.700;2023-03-13T06:04:39;99509.31396484375;;;12.21;92.23
44531;BME280;30240;47.418;0.700;2023-03-13T06:07:04;99517.26684570312;;;12.18;92.24
44531;BME280;30240;47.418;0.700;2023-03-13T06:09:28;99521.7529296875;;;12.17;92.29
44531;BME280;30240;47.418;0.700;2023-03-13T06:11:53;99516.2353515625;;;12.2;92.24
44531;BME280;30240;47.418;0.700;2023-03-13T06:14:18;99516.2353515625;;;12.2;92.24
44531;BME280;30240;47.418;0.700;2023-03-13T06:16:43;99520.56884765625;;;12.16;92.26
44531;BME280;30240;47.418;0.700;2023-03-13T06:19:08;99510.09521484375;;;12.16;92.34
44531;BME280;30240;47.418;0.700;2023-03-13T06:21:33;99503.60717773438;;;12.13;92.47
44531;BME280;30240;47.418;0.700;2023-03-13T06:23:58;99499.27978515625;;;12.13;92.38
44531;BME280;30240;47.418;0.700;2023-03-13T06:26:23;99499.27978515625;;;12.13;92.38
44531;BME280;30240;47.418;0.700;2023-03-13T06:28:49;99506.7626953125;;;12.13;92.44
44531;BME280;30240;47.418;0.700;2023-03-13T06:31:13;99499.365234375;;;12.12;92.41
44531;BME280;30240;47.418;0.700;2023-03-13T06:33:38;99478.40576171875;;;12.2;92.41
44531;BME280;30240;47.418;0.700;2023-03-13T06:36:04;99506.21948242188;;;12.25;92.38
44531;BME280;30240;47.418;0.700;2023-03-13T06:38:29;99506.21948242188;;;12.25;92.38
44531;BME280;30240;47.418;0.700;2023-03-13T06:40:54;99497.73559570312;;;12.25;92.36
44531;BME280;30240;47.418;0.700;2023-03-13T06:43:19;99496.54541015625;;;12.31;92.32
44531;BME280;30240;47.418;0.700;2023-03-13T06:45:43;99493.6767578125;;;12.37;92.39
44531;BME280;30240;47.418;0.700;2023-03-13T06:48:08;99499.37744140625;;;12.37;92.49
44531;BME280;30240;47.418;0.700;2023-03-13T06:50:36;99499.37744140625;;;12.37;92.49
44531;BME280;30240;47.418;0.700;2023-03-13T06:52:58;99483.97827148438;;;12.35;92.6
44531;BME280;30240;47.418;0.700;2023-03-13T06:55:23;99490.185546875;;;12.37;92.89
44531;BME280;30240;47.418;0.700;2023-03-13T06:57:49;99492.68188476562;;;12.4;93.03
44531;BME280;30240;47.418;0.700;2023-03-13T07:00:14;99481.982421875;;;12.42;93.15
44531;BME280;30240;47.418;0.700;2023-03-13T07:02:38;99481.982421875;;;12.42;93.15
44531;BME280;30240;47.418;0.700;2023-03-13T07:05:04;99480.43823242188;;;12.48;93.24
44531;BME280;30240;47.418;0.700;2023-03-13T07:07:28;99469.25048828125;;;12.52;93.27
44531;BME280;30240;47.418;0.700;2023-03-13T07:09:53;99468.24951171875;;;12.51;93.33
44531;BME280;30240;47.418;0.700;2023-03-13T07:12:18;99477.32543945312;;;12.51;93.39
44531;BME280;30240;47.418;0.700;2023-03-13T07:14:43;99477.32543945312;;;12.51;93.39
44531;BME280;30240;47.418;0.700;2023-03-13T07:17:08;99454.736328125;;;12.62;93.31
44531;BME280;30240;47.418;0.700;2023-03-13T07:19:33;99447.45483398438;;;12.69;93.27
44531;BME280;30240;47.418;0.700;2023-03-13T07:21:58;99455.43823242188;;;12.7;93.44
44531;BME280;30240;47.418;0.700;2023-03-13T07:24:23;99453.98559570312;;;12.79;93.4
44531;BME280;30240;47.418;0.700;2023-03-13T07:26:48;99445.03173828125;;;12.87;93.43
44531;BME280;30240;47.418;0.700;2023-03-13T07:29:14;99445.03173828125;;;12.87;93.43
44531;BME280;30240;47.418;0.700;2023-03-13T07:31:38;99443.80493164062;;;12.94;93.44
44531;BME280;30240;47.418;0.700;2023-03-13T07:34:03;99440.6494140625;;;12.97;93.59
44531;BME280;30240;47.418;0.700;2023-03-13T07:36:28;99436.21215820312;;;13.06;93.4
44531;BME280;30240;47.418;0.700;2023-03-13T07:38:54;99431.14624023438;;;13.08;93.57
44531;BME280;30240;47.418;0.700;2023-03-13T07:41:19;99431.14624023438;;;13.08;93.57
44531;BME280;30240;47.418;0.700;2023-03-13T07:43:44;99431.8115234375;;;13.08;93.65
44531;BME280;30240;47.418;0.700;2023-03-13T07:46:11;99424.8779296875;;;13.12;93.57
44531;BME280;30240;47.418;0.700;2023-03-13T07:48:35;99425.28686523438;;;13.26;93.45
44531;BME280;30240;47.418;0.700;2023-03-13T07:50:59;99427.34375;;;13.25;93.49
44531;BME280;30240;47.418;0.700;2023-03-13T07:53:24;99427.34375;;;13.25;93.49
44531;BME280;30240;47.418;0.700;2023-03-13T07:55:53;99428.40576171875;;;13.31;93.52
44531;BME280;30240;47.418;0.700;2023-03-13T07:58:13;99422.76611328125;;;13.35;93.54
44531;BME280;30240;47.418;0.700;2023-03-13T08:00:38;99419.22607421875;;;13.38;93.65
44531;BME280;30240;47.418;0.700;2023-03-13T08:03:03;99411.328125;;;13.39;93.65
44531;BME280;30240;47.418;0.700;2023-03-13T08:05:28;99411.328125;;;13.39;93.65
44531;BME280;30240;47.418;0.700;2023-03-13T08:07:53;99433.11767578125;;;13.38;93.71
44531;BME280;30240;47.418;0.700;2023-03-13T08:10:18;99403.94287109375;;;13.36;93.75
44531;BME280;30240;47.418;0.700;2023-03-13T08:12:43;99393.47534179688;;;13.35;93.8
44531;BME280;30240;47.418;0.700;2023-03-13T08:15:08;99393.93920898438;;;13.42;93.89
44531;BME280;30240;47.418;0.700;2023-03-13T08:17:33;99393.93920898438;;;13.42;93.89
44531;BME280;30240;47.418;0.700;2023-03-13T08:19:58;99393.994140625;;;13.53;93.6
44531;BME280;30240;47.418;0.700;2023-03-13T08:22:23;99384.94262695312;;;13.58;93.21
44531;BME280;30240;47.418;0.700;2023-03-13T08:24:48;99393.2861328125;;;13.6;93.27
44531;BME280;30240;47.418;0.700;2023-03-13T08:27:14;99357.0068359375;;;13.66;93.23
44531;BME280;30240;47.418;0.700;2023-03-13T08:29:39;99357.0068359375;;;13.66;93.23
44531;BME280;30240;47.418;0.700;2023-03-13T08:32:04;99355.54809570312;;;13.7;92.84
44531;BME280;30240;47.418;0.700;2023-03-13T08:34:29;99369.86083984375;;;13.84;92.5
44531;BME280;30240;47.418;0.700;2023-03-13T08:36:54;99389.892578125;;;13.81;92.27
44531;BME280;30240;47.418;0.700;2023-03-13T08:39:19;99371.923828125;;;13.87;92.2
44531;BME280;30240;47.418;0.700;2023-03-13T08:41:44;99371.923828125;;;13.87;92.2
44531;BME280;30240;47.418;0.700;2023-03-13T08:44:10;99367.529296875;;;13.94;91.88
44531;BME280;30240;47.418;0.700;2023-03-13T08:46:35;99360.96801757812;;;13.95;92.14
44531;BME280;30240;47.418;0.700;2023-03-13T08:48:59;99376.75170898438;;;13.76;91.66
44531;BME280;30240;47.418;0.700;2023-03-13T08:51:25;99389.22119140625;;;13.77;92.08
44531;BME280;30240;47.418;0.700;2023-03-13T08:53:49;99389.404296875;;;13.58;91.75
44531;BME280;30240;47.418;0.700;2023-03-13T08:56:16;99389.404296875;;;13.58;91.75
44531;BME280;30240;47.418;0.700;2023-03-13T08:58:39;99368.98193359375;;;13.59;91.96
44531;BME280;30240;47.418;0.700;2023-03-13T09:01:05;99373.7060546875;;;13.6;92.21
44531;BME280;30240;47.418;0.700;2023-03-13T09:03:29;99372.998046875;;;13.49;91.99
44531;BME280;30240;47.418;0.700;2023-03-13T09:05:55;99372.96752929688;;;13.45;92.0
44531;BME280;30240;47.418;0.700;2023-03-13T09:08:18;99372.96752929688;;;13.45;92.0
44531;BME280;30240;47.418;0.700;2023-03-13T09:10:43;99360.34545898438;;;13.48;91.68
44531;BME280;30240;47.418;0.700;2023-03-13T09:13:08;99362.50610351562;;;13.48;91.58
44531;BME280;30240;47.418;0.700;2023-03-13T09:15:33;99357.40356445312;;;13.46;91.61
44531;BME280;30240;47.418;0.700;2023-03-13T09:17:58;99320.88012695312;;;13.58;91.53
44531;BME280;30240;47.418;0.700;2023-03-13T09:20:24;99320.88012695312;;;13.58;91.53
44531;BME280;30240;47.418;0.700;2023-03-13T09:22:48;99335.56518554688;;;13.63;91.04
44531;BME280;30240;47.418;0.700;2023-03-13T09:25:14;99345.34301757812;;;13.73;91.13
44531;BME280;30240;47.418;0.700;2023-03-13T09:27:39;99323.4375;;;13.78;91.07
44531;BME280;30240;47.418;0.700;2023-03-13T09:30:04;99318.76831054688;;;13.78;91.07
44531;BME280;30240;47.418;0.700;2023-03-13T09:32:29;99318.76831054688;;;13.78;91.07
44531;BME280;30240;47.418;0.700;2023-03-13T09:34:54;99327.64282226562;;;13.85;91.01
44531;BME280;30240;47.418;0.700;2023-03-13T09:37:19;99303.17993164062;;;14.02;90.78
44531;BME280;30240;47.418;0.700;2023-03-13T09:39:44;99271.875;;;14.08;90.35
44531;BME280;30240;47.418;0.700;2023-03-13T09:42:12;99255.38330078125;;;14.26;89.95
44531;BME280;30240;47.418;0.700;2023-03-13T09:44:38;99255.38330078125;;;14.26;89.95
44531;BME280;30240;47.418;0.700;2023-03-13T09:47:02;99237.40844726562;;;14.73;89.44
44531;BME280;30240;47.418;0.700;2023-03-13T09:49:28;99235.97412109375;;;14.49;88.87
44531;BME280;30240;47.418;0.700;2023-03-13T09:51:52;99240.2587890625;;;14.3;89.44
44531;BME280;30240;47.418;0.700;2023-03-13T09:54:19;99233.40454101562;;;14.4;89.57
44531;BME280;30240;47.418;0.700;2023-03-13T09:56:44;99233.40454101562;;;14.4;89.57
44531;BME280;30240;47.418;0.700;2023-03-13T09:59:08;99242.431640625;;;14.37;89.24
44531;BME280;30240;47.418;0.700;2023-03-13T09:59:12;99242.431640625;;;14.37;89.24
44531;BME280;30240;47.418;0.700;2023-03-13T10:01:29;99208.17260742188;;;14.55;88.86
44531;BME280;30240;47.418;0.700;2023-03-13T10:04:00;99220.0439453125;;;15.1;87.8
44531;BME280;30240;47.418;0.700;2023-03-13T10:06:20;99244.64111328125;;;14.84;87.92
44531;BME280;30240;47.418;0.700;2023-03-13T10:08:44;99244.64111328125;;;14.84;87.92
44531;BME280;30240;47.418;0.700;2023-03-13T10:11:16;99248.46801757812;;;14.78;88.57
44531;BME280;30240;47.418;0.700;2023-03-13T10:11:22;99248.46801757812;;;14.78;88.57
44531;BME280;30240;47.418;0.700;2023-03-13T10:11:23;99248.46801757812;;;14.78;88.57
44531;BME280;30240;47.418;0.700;2023-03-13T10:13:37;99237.26806640625;;;14.81;88.28
44531;BME280;30240;47.418;0.700;2023-03-13T10:16:01;99233.94775390625;;;14.6;88.43
44531;BME280;30240;47.418;0.700;2023-03-13T10:18:25;99218.9208984375;;;14.99;88.03
44531;BME280;30240;47.418;0.700;2023-03-13T10:20:50;99218.9208984375;;;14.99;88.03
44531;BME280;30240;47.418;0.700;2023-03-13T10:23:18;99225.53100585938;;;14.96;88.11
44531;BME280;30240;47.418;0.700;2023-03-13T10:25:39;99253.23486328125;;;14.92;87.54
44531;BME280;30240;47.418;0.700;2023-03-13T10:28:04;99243.32885742188;;;14.99;87.36
44531;BME280;30240;47.418;0.700;2023-03-13T10:30:30;99242.37670898438;;;14.92;87.44
44531;BME280;30240;47.418;0.700;2023-03-13T10:32:56;99266.40625;;;14.76;88.23
44531;BME280;30240;47.418;0.700;2023-03-13T10:35:20;99266.40625;;;14.76;88.23
44531;BME280;30240;47.418;0.700;2023-03-13T10:37:44;99292.10815429688;;;14.87;88.07
44531;BME280;30240;47.418;0.700;2023-03-13T10:40:12;99295.75805664062;;;14.85;87.86
44531;BME280;30240;47.418;0.700;2023-03-13T10:42:37;99294.61059570312;;;14.85;88.19
44531;BME280;30240;47.418;0.700;2023-03-13T10:45:00;99303.76586914062;;;14.89;87.71
44531;BME280;30240;47.418;0.700;2023-03-13T10:47:24;99303.76586914062;;;14.89;87.71
44531;BME280;30240;47.418;0.700;2023-03-13T10:49:50;99279.2724609375;;;15.32;86.95
44531;BME280;30240;47.418;0.700;2023-03-13T10:52:29;99279.93774414062;;;15.27;86.64
44531;BME280;30240;47.418;0.700;2023-03-13T10:54:39;99257.70874023438;;;15.26;87.23
44531;BME280;30240;47.418;0.700;2023-03-13T10:57:09;;;;14.95;87.14
44531;BME280;30240;47.418;0.700;2023-03-13T10:57:21;99254.01000976562;;;14.95;87.14
44531;BME280;30240;47.418;0.700;2023-03-13T10:57:27;99254.01000976562;;;14.95;87.14
44531;BME280;30240;47.418;0.700;2023-03-13T10:59:29;99254.01000976562;;;14.95;87.14
44531;BME280;30240;47.418;0.700;2023-03-13T11:01:59;99270.90454101562;;;14.89;87.74
44531;BME280;30240;47.418;0.700;2023-03-13T11:04:20;99297.68676757812;;;14.67;87.13
44531;BME280;30240;47.418;0.700;2023-03-13T11:04:27;99297.68676757812;;;14.67;87.13
44531;BME280;30240;47.418;0.700;2023-03-13T11:06:50;99305.2490234375;;;14.56;86.87
44531;BME280;30240;47.418;0.700;2023-03-13T11:09:12;99297.2412109375;;;14.35;87.64
44531;BME280;30240;47.418;0.700;2023-03-13T11:11:43;99297.2412109375;;;14.35;87.64
44531;BME280;30240;47.418;0.700;2023-03-13T11:14:07;99286.22436523438;;;14.22;87.78
44531;BME280;30240;47.418;0.700;2023-03-13T11:16:27;99282.56225585938;;;14.05;87.47